Latest METAR Data

Below are the latest METARs ("Meteorological Services to Airmen Reports"), for RNAS Culdrose and Newquay Airport.

EGDR - RNAS Culdrose
Distance from station: SW 6mi, 9km
Updated: Mon, 25-Oct-2021 12:50am BST
Few Clouds
Few Clouds
 Wind from SSW
Wind: SSW 7 mph , 11 km/h
Temperature: 55°F , 13°C
Dew Point: 55°F , 13°C
Humidity: 100%
Barometer: 29.94 inHg , 1014 hPa
Clouds: Few Clouds
Visibility: 6 miles , 9 km
Cloud details: Few Clouds 1500 ft
2021/10/24 23:50 EGDR 242350Z AUTO 21006KT 9000 // FEW015/// 13/13 Q1014
EGHQ - Newquay Airport
Distance from station: NE 21mi, 34km
Updated: Mon, 25-Oct-2021 1:50am BST
Clear
Clear
 Wind from SSW
Wind: SSW 9 mph , 15 km/h
Temperature: 54°F , 12°C
Dew Point: 52°F , 11°C
Humidity: 94%
Barometer: 29.94 inHg , 1014 hPa
Clouds: Clear
Visibility: 6 miles , 10 km
2021/10/25 00:50 EGHQ 250050Z AUTO 21008KT 9999 NCD 12/11 Q1014 RERA
 
EGTE - Exeter Airport
Distance from station: ENE 88mi, 141km
Updated: Sun, 24-Oct-2021 7:50pm BST
NOT Current
Few Clouds
Few Clouds
 Wind from S
Wind: S 7 mph , 11 km/h
Temperature: 55°F , 13°C
Dew Point: 54°F , 12°C
Humidity: 94%
Barometer: 29.97 inHg , 1015 hPa
Clouds: Few Clouds
Visibility: 6 miles , 10 km
Cloud details: Few Clouds 2000 ft
2021/10/24 18:50 EGTE 241850Z 18006KT 9999 FEW020 13/12 Q1015
EGHE - St Marys, IOS
Distance from station: W 51mi, 82km
Updated: Sat, 23-Oct-2021 5:20pm BST
NOT Current
Light rain, Showers, Partly cloudy
Light rain, Showers, Partly cloudy
 Wind from S
Wind: S 33 mph , 54 km/h
Temperature: 57°F , 14°C
Dew Point: 50°F , 10°C
Humidity: 77%
Barometer: 30.09 inHg , 1019 hPa
Summary: Light rain, Showers
Clouds: Partly Cloudy
Visibility: 6 miles , 10 km
Cloud details: Few Clouds 2000 ft
Partly Cloudy 3000 ft
2021/10/23 16:20 EGHE 231620Z 18029KT 9999 -SHRA FEW020 SCT030 14/10 Q1019

Metar display script from Saratoga-Weather.org

 

 

UK - WEATHER STATION TOPSITES - UK World Weather Websites

Copyright © Carnkie Weather 2009 - 2021.